createdAt,value
2019-03-01T00:01:17.044Z,9.14
2019-03-01T00:03:44.382Z,9.12
2019-03-01T00:06:33.498Z,9.18
2019-03-01T00:09:38.267Z,9.18
2019-03-01T00:12:52.658Z,9.18
2019-03-01T00:15:59.833Z,9.18
2019-03-01T00:19:20.620Z,9.16
2019-03-01T00:22:47.352Z,9.15
2019-03-01T00:25:40.626Z,9.15
2019-03-01T00:28:31.405Z,9.08
2019-03-01T00:31:29.934Z,9.05
2019-03-01T00:34:30.526Z,8.99
2019-03-01T00:37:17.124Z,8.99
2019-03-01T00:39:53.271Z,8.96
2019-03-01T00:42:47.062Z,8.96
2019-03-01T00:45:13.834Z,8.94
2019-03-01T00:47:40.370Z,8.96
2019-03-01T00:50:06.964Z,8.98
2019-03-01T00:52:33.868Z,9.03
2019-03-01T00:55:00.355Z,9.04
2019-03-01T00:57:26.812Z,9.02
2019-03-01T00:59:53.871Z,9.06
2019-03-01T01:02:20.392Z,9.06
2019-03-01T01:04:46.966Z,9.09
2019-03-01T01:07:13.463Z,9.08
2019-03-01T01:09:39.960Z,9.06
2019-03-01T01:12:06.462Z,9.08
2019-03-01T01:14:33.065Z,9.04
2019-03-01T01:16:59.795Z,9.02
2019-03-01T01:19:26.320Z,9.01
2019-03-01T01:21:54.359Z,8.96
2019-03-01T01:24:21.000Z,8.85
2019-03-01T01:26:47.464Z,8.78
2019-03-01T01:29:14.882Z,8.58
2019-03-01T01:31:41.333Z,8.33
2019-03-01T01:34:08.192Z,8.13
2019-03-01T01:36:34.915Z,8.03
2019-03-01T01:39:03.721Z,7.95
2019-03-01T01:41:30.242Z,7.90
2019-03-01T01:43:56.748Z,7.85
2019-03-01T01:46:23.607Z,7.81
2019-03-01T01:48:50.127Z,7.80
2019-03-01T01:51:16.937Z,7.77
2019-03-01T01:53:43.790Z,7.73
2019-03-01T01:56:10.348Z,7.68
2019-03-01T01:58:36.831Z,7.67
2019-03-01T02:01:03.635Z,7.65
2019-03-01T02:03:30.099Z,7.59
2019-03-01T02:05:56.730Z,7.56
2019-03-01T02:08:23.164Z,7.49
2019-03-01T02:10:50.155Z,7.45
2019-03-01T02:13:16.603Z,7.45
2019-03-01T02:15:43.060Z,7.40
2019-03-01T02:18:09.540Z,7.43
2019-03-01T02:20:37.079Z,7.42
2019-03-01T02:23:03.860Z,7.44
2019-03-01T02:25:30.311Z,7.47
2019-03-01T02:27:56.766Z,7.47
2019-03-01T02:30:24.419Z,7.45
2019-03-01T02:32:51.215Z,7.43
2019-03-01T02:35:19.810Z,7.43
2019-03-01T02:37:46.588Z,7.45
2019-03-01T02:40:13.550Z,7.44
2019-03-01T02:42:40.028Z,7.42
2019-03-01T02:45:08.538Z,7.41
2019-03-01T02:47:35.031Z,7.43
2019-03-01T02:50:08.296Z,7.44
2019-03-01T02:52:34.797Z,7.43
2019-03-01T02:55:01.409Z,7.45
2019-03-01T02:57:27.950Z,7.44
2019-03-01T02:59:54.416Z,7.44
2019-03-01T03:02:20.919Z,7.43
2019-03-01T03:04:47.405Z,7.44
2019-03-01T03:07:25.252Z,7.40
2019-03-01T03:09:51.972Z,7.41
2019-03-01T03:12:18.785Z,7.44
2019-03-01T03:14:45.278Z,7.47
2019-03-01T03:17:12.032Z,7.49
2019-03-01T03:19:38.521Z,7.53
2019-03-01T03:22:04.960Z,7.55
2019-03-01T03:24:31.452Z,7.53
2019-03-01T03:26:57.936Z,7.56
2019-03-01T03:29:24.406Z,7.56
2019-03-01T03:31:50.870Z,7.57
2019-03-01T03:34:17.601Z,7.61
2019-03-01T03:36:44.139Z,7.57
2019-03-01T03:39:11.031Z,7.57
2019-03-01T03:41:37.917Z,7.59
2019-03-01T03:44:04.662Z,7.59
2019-03-01T03:46:31.138Z,7.59
2019-03-01T03:48:57.627Z,7.59
2019-03-01T03:51:24.498Z,7.58
2019-03-01T03:53:51.182Z,7.58
2019-03-01T03:56:17.763Z,7.61
2019-03-01T03:58:44.481Z,7.61
2019-03-01T04:01:33.021Z,7.62
2019-03-01T04:03:59.814Z,7.62
2019-03-01T04:06:28.724Z,7.62
2019-03-01T04:08:55.762Z,7.64
2019-03-01T04:11:22.427Z,7.62
2019-03-01T04:13:48.913Z,7.61
2019-03-01T04:16:15.380Z,7.61
2019-03-01T04:18:41.883Z,7.62
2019-03-01T04:21:09.443Z,7.62
2019-03-01T04:23:35.908Z,7.64
2019-03-01T04:26:02.648Z,7.64
2019-03-01T04:28:30.611Z,7.61
2019-03-01T04:30:57.128Z,7.61
2019-03-01T04:33:23.608Z,7.61
2019-03-01T04:35:50.105Z,7.58
2019-03-01T04:38:16.581Z,7.61
2019-03-01T04:40:43.019Z,7.60
2019-03-01T04:43:09.542Z,7.59
2019-03-01T04:45:36.289Z,7.58
2019-03-01T04:48:02.787Z,7.55
2019-03-01T04:50:29.295Z,7.59
2019-03-01T04:52:56.091Z,7.59
2019-03-01T04:55:23.839Z,7.56
2019-03-01T04:57:50.374Z,7.55
2019-03-01T05:00:18.733Z,7.51
2019-03-01T05:02:46.284Z,7.48
2019-03-01T05:05:13.633Z,7.49
2019-03-01T05:07:40.099Z,7.49
2019-03-01T05:10:08.049Z,7.45
2019-03-01T05:12:34.489Z,7.46
2019-03-01T05:15:01.406Z,7.45
2019-03-01T05:17:27.885Z,7.44
2019-03-01T05:19:58.815Z,7.43
2019-03-01T05:22:25.298Z,7.42
2019-03-01T05:24:52.015Z,7.46
2019-03-01T05:27:18.620Z,7.46
2019-03-01T05:29:45.375Z,7.49
2019-03-01T05:32:11.878Z,7.50
2019-03-01T05:34:38.550Z,7.54
2019-03-01T05:37:05.148Z,7.53
2019-03-01T05:39:31.732Z,7.55
2019-03-01T05:41:58.192Z,7.50
2019-03-01T05:44:24.970Z,7.46
2019-03-01T05:46:51.747Z,7.46
2019-03-01T05:49:18.320Z,7.42
2019-03-01T05:51:44.711Z,7.45
2019-03-01T05:54:11.281Z,7.46
2019-03-01T05:56:39.862Z,7.46
2019-03-01T05:59:11.969Z,7.46
2019-03-01T06:01:53.537Z,7.44
2019-03-01T06:04:24.194Z,7.43
2019-03-01T06:07:15.053Z,7.42
2019-03-01T06:09:53.719Z,7.40
2019-03-01T06:12:47.683Z,7.42
2019-03-01T06:15:29.999Z,7.42
2019-03-01T06:18:28.707Z,7.39
2019-03-01T06:21:45.479Z,7.35
2019-03-01T06:24:42.182Z,7.33
2019-03-01T06:27:34.854Z,7.36
2019-03-01T06:30:40.329Z,7.37
2019-03-01T06:34:06.120Z,7.38
2019-03-01T06:37:16.559Z,7.38
2019-03-01T06:40:19.112Z,7.42
2019-03-01T06:42:56.664Z,7.44
2019-03-01T06:46:00.798Z,7.42
2019-03-01T06:48:45.524Z,7.40
2019-03-01T06:51:28.392Z,7.44
2019-03-01T06:53:48.541Z,7.43
2019-03-01T06:56:15.484Z,7.45
2019-03-01T06:58:49.755Z,7.48
2019-03-01T07:01:30.271Z,7.47
2019-03-01T07:04:03.918Z,7.48
2019-03-01T07:06:30.811Z,7.54
2019-03-01T07:08:57.442Z,7.57
2019-03-01T07:11:24.033Z,7.56
2019-03-01T07:13:50.789Z,7.61
2019-03-01T07:16:17.271Z,7.65
2019-03-01T07:18:45.937Z,7.68
2019-03-01T07:21:12.498Z,7.69
2019-03-01T07:23:39.541Z,7.68
2019-03-01T07:26:06.501Z,7.74
2019-03-01T07:28:33.623Z,7.76
2019-03-01T07:31:00.233Z,7.74
2019-03-01T07:33:27.273Z,7.70
2019-03-01T07:35:54.258Z,7.71
2019-03-01T07:38:21.207Z,7.73
2019-03-01T07:40:48.214Z,7.73
2019-03-01T07:43:16.671Z,7.74
2019-03-01T07:45:43.325Z,7.76
2019-03-01T07:48:09.910Z,7.76
2019-03-01T07:50:36.546Z,7.74
2019-03-01T07:53:03.738Z,7.78
2019-03-01T07:55:31.434Z,7.77
2019-03-01T07:57:58.421Z,7.79
2019-03-01T08:00:25.177Z,7.82
2019-03-01T08:02:51.969Z,7.90
2019-03-01T08:05:18.856Z,8.01
2019-03-01T08:07:55.634Z,8.07
2019-03-01T08:10:20.885Z,8.15
2019-03-01T08:12:43.475Z,8.22
2019-03-01T08:15:11.822Z,8.31
2019-03-01T08:17:38.431Z,8.33
2019-03-01T08:20:08.386Z,8.37
2019-03-01T08:22:47.504Z,8.45
2019-03-01T08:25:05.441Z,8.54
2019-03-01T08:27:32.342Z,8.63
2019-03-01T08:29:59.257Z,8.87
2019-03-01T08:32:27.451Z,9.25
2019-03-01T08:34:54.821Z,9.88
2019-03-01T08:37:21.484Z,10.16
2019-03-01T08:39:49.694Z,10.14
2019-03-01T08:42:16.335Z,9.96
2019-03-01T08:44:42.868Z,9.88
2019-03-01T08:47:09.578Z,10.15
2019-03-01T08:49:36.166Z,10.67
2019-03-01T08:52:24.028Z,11.23
2019-03-01T08:54:51.044Z,11.65
2019-03-01T08:57:18.528Z,11.99
2019-03-01T08:59:45.870Z,12.54
2019-03-01T09:02:12.814Z,12.35
2019-03-01T09:04:39.371Z,12.11
2019-03-01T09:07:05.930Z,11.84
2019-03-01T09:09:32.812Z,11.77
2019-03-01T09:11:59.405Z,11.56
2019-03-01T09:14:27.495Z,11.32
2019-03-01T09:17:02.958Z,11.12
2019-03-01T09:19:42.218Z,10.85
2019-03-01T09:22:08.859Z,10.72
2019-03-01T09:24:35.502Z,11.02
2019-03-01T09:27:02.718Z,11.53
2019-03-01T09:29:29.272Z,11.68
2019-03-01T09:31:57.873Z,11.33
2019-03-01T09:34:24.814Z,10.94
2019-03-01T09:36:55.611Z,10.61
2019-03-01T09:39:22.488Z,10.42
2019-03-01T09:41:49.531Z,10.25
2019-03-01T09:44:16.732Z,10.18
2019-03-01T09:46:44.173Z,10.16
2019-03-01T09:49:10.977Z,10.17
2019-03-01T09:51:37.604Z,10.18
2019-03-01T09:54:06.411Z,10.17
2019-03-01T09:56:36.755Z,10.12
2019-03-01T09:59:09.504Z,10.17
2019-03-01T10:01:36.665Z,10.22
2019-03-01T10:04:04.583Z,10.20
2019-03-01T10:06:38.430Z,10.16
2019-03-01T10:09:13.292Z,10.08
2019-03-01T10:11:44.191Z,10.05
2019-03-01T10:14:15.243Z,10.07
2019-03-01T10:16:42.487Z,10.12
2019-03-01T10:19:11.789Z,10.01
2019-03-01T10:21:42.247Z,9.92
2019-03-01T10:24:13.994Z,9.90
2019-03-01T10:26:51.386Z,9.86
2019-03-01T10:29:24.420Z,9.91
2019-03-01T10:31:52.176Z,9.95
2019-03-01T10:34:22.723Z,10.00
2019-03-01T10:36:51.282Z,10.01
2019-03-01T10:39:18.750Z,10.02
2019-03-01T10:41:45.595Z,9.95
2019-03-01T10:44:12.494Z,9.82
2019-03-01T10:46:40.167Z,9.77
2019-03-01T10:49:07.006Z,9.79
2019-03-01T10:51:34.150Z,9.80
2019-03-01T10:54:01.036Z,9.86
2019-03-01T10:56:27.778Z,9.97
2019-03-01T10:59:10.654Z,10.05
2019-03-01T11:01:38.782Z,10.11
2019-03-01T11:04:09.682Z,10.29
2019-03-01T11:06:36.582Z,10.38
2019-03-01T11:09:06.132Z,10.50
2019-03-01T11:11:33.461Z,10.53
2019-03-01T11:14:02.333Z,10.59
2019-03-01T11:16:30.799Z,10.77
2019-03-01T11:18:58.279Z,10.88
2019-03-01T11:21:25.111Z,11.10
2019-03-01T11:23:54.809Z,11.16
2019-03-01T11:26:25.245Z,11.14
2019-03-01T11:28:52.878Z,11.09
2019-03-01T11:31:19.890Z,11.15
2019-03-01T11:33:47.041Z,11.17
2019-03-01T11:36:13.911Z,11.11
2019-03-01T11:38:40.528Z,11.18
2019-03-01T11:41:07.332Z,11.02
2019-03-01T11:43:34.270Z,11.01
2019-03-01T11:46:00.899Z,11.06
2019-03-01T11:48:30.303Z,11.22
2019-03-01T11:50:57.834Z,11.12
2019-03-01T11:53:24.547Z,11.23
2019-03-01T11:55:51.342Z,11.38
2019-03-01T11:58:18.939Z,11.24
2019-03-01T12:00:52.001Z,11.15
2019-03-01T12:03:15.468Z,11.10
2019-03-01T12:05:42.101Z,11.05
2019-03-01T12:08:08.803Z,11.05
2019-03-01T12:10:35.469Z,11.10
2019-03-01T12:13:02.120Z,11.15
2019-03-01T12:15:28.621Z,11.11
2019-03-01T12:17:55.412Z,11.10
2019-03-01T12:20:22.188Z,11.17
2019-03-01T12:22:49.025Z,11.07
2019-03-01T12:25:18.753Z,11.18
2019-03-01T12:27:45.705Z,11.29
2019-03-01T12:30:14.358Z,11.24
2019-03-01T12:32:41.099Z,11.34
2019-03-01T12:35:14.638Z,11.25
2019-03-01T12:37:41.593Z,11.16
2019-03-01T12:40:19.673Z,11.13
2019-03-01T12:42:48.063Z,11.13
2019-03-01T12:45:15.773Z,11.11
2019-03-01T12:47:42.711Z,11.09
2019-03-01T12:50:11.484Z,10.94
2019-03-01T12:52:40.297Z,10.81
2019-03-01T12:55:12.319Z,10.72
2019-03-01T12:57:38.980Z,10.50
2019-03-01T13:00:12.724Z,10.30
2019-03-01T13:02:39.392Z,10.09
2019-03-01T13:05:06.743Z,9.97
2019-03-01T13:07:35.541Z,9.93
2019-03-01T13:10:03.381Z,9.97
2019-03-01T13:12:30.705Z,10.00
2019-03-01T13:14:57.303Z,9.96
2019-03-01T13:17:23.809Z,9.98
2019-03-01T13:19:50.423Z,10.01
2019-03-01T13:22:16.971Z,10.00
2019-03-01T13:24:43.716Z,9.99
2019-03-01T13:27:10.938Z,9.86
2019-03-01T13:29:37.433Z,9.78
2019-03-01T13:32:04.207Z,9.64
2019-03-01T13:34:30.738Z,9.59
2019-03-01T13:36:57.587Z,9.57
2019-03-01T13:39:24.056Z,9.58
2019-03-01T13:41:50.683Z,9.64
2019-03-01T13:44:17.481Z,9.74
2019-03-01T13:46:44.001Z,9.84
2019-03-01T13:49:10.575Z,9.91
2019-03-01T13:51:39.353Z,9.82
2019-03-01T13:54:17.219Z,9.71
2019-03-01T13:56:43.884Z,9.71
2019-03-01T13:59:10.888Z,9.73
2019-03-01T14:01:38.048Z,9.77
2019-03-01T14:04:04.695Z,9.80
2019-03-01T14:06:31.302Z,9.84
2019-03-01T14:08:58.030Z,9.88
2019-03-01T14:11:24.755Z,9.94
2019-03-01T14:13:52.903Z,9.95
2019-03-01T14:16:20.431Z,9.99
2019-03-01T14:18:48.046Z,10.03
2019-03-01T14:21:14.613Z,10.12
2019-03-01T14:23:41.396Z,10.13
2019-03-01T14:26:08.041Z,10.10
2019-03-01T14:28:34.622Z,10.15
2019-03-01T14:31:04.038Z,10.14
2019-03-01T14:33:33.121Z,10.21
2019-03-01T14:36:02.955Z,10.14
2019-03-01T14:38:29.899Z,10.08
2019-03-01T14:40:59.430Z,10.10
2019-03-01T14:43:25.530Z,10.04
2019-03-01T14:45:53.380Z,9.93
2019-03-01T14:48:19.892Z,9.93
2019-03-01T14:50:48.938Z,9.84
2019-03-01T14:53:16.113Z,9.78
2019-03-01T14:55:45.632Z,9.70
2019-03-01T14:58:26.344Z,9.67
2019-03-01T15:01:06.550Z,9.51
2019-03-01T15:03:34.575Z,9.17
2019-03-01T15:06:01.260Z,8.99
2019-03-01T15:08:28.314Z,8.83
2019-03-01T15:10:55.850Z,8.74
2019-03-01T15:13:22.775Z,8.63
2019-03-01T15:15:49.532Z,8.59
2019-03-01T15:18:16.179Z,8.53
2019-03-01T15:20:43.226Z,8.48
2019-03-01T15:23:09.802Z,8.48
2019-03-01T15:25:36.283Z,8.38
2019-03-01T15:28:04.761Z,8.36
2019-03-01T15:30:31.362Z,8.29
2019-03-01T15:33:08.523Z,8.30
2019-03-01T15:35:36.313Z,8.30
2019-03-01T15:38:04.968Z,8.28
2019-03-01T15:40:32.613Z,8.26
2019-03-01T15:42:59.504Z,8.15
2019-03-01T15:45:26.208Z,8.15
2019-03-01T15:47:52.769Z,8.11
2019-03-01T15:50:26.986Z,8.12
2019-03-01T15:52:52.316Z,8.13
2019-03-01T15:55:18.901Z,8.08
2019-03-01T15:57:45.673Z,8.15
2019-03-01T16:00:12.696Z,8.14
2019-03-01T16:02:40.099Z,8.15
2019-03-01T16:05:07.487Z,8.13
2019-03-01T16:07:34.201Z,8.15
2019-03-01T16:10:01.953Z,8.19
2019-03-01T16:12:31.931Z,8.18
2019-03-01T16:15:00.437Z,8.20
2019-03-01T16:17:25.811Z,8.19
2019-03-01T16:19:53.470Z,8.20
2019-03-01T16:22:20.170Z,8.20
2019-03-01T16:24:46.670Z,8.22
2019-03-01T16:27:15.302Z,8.20
2019-03-01T16:29:43.155Z,8.20
2019-03-01T16:32:10.269Z,8.19
2019-03-01T16:34:37.771Z,8.19
2019-03-01T16:37:05.347Z,8.18
2019-03-01T16:39:31.999Z,8.13
2019-03-01T16:41:58.512Z,8.11
2019-03-01T16:44:26.583Z,8.10
2019-03-01T16:46:53.346Z,8.10
2019-03-01T16:49:20.138Z,8.09
2019-03-01T16:51:50.703Z,8.09
2019-03-01T16:54:17.350Z,8.06
2019-03-01T16:56:44.937Z,8.07
2019-03-01T16:59:11.677Z,8.06
2019-03-01T17:01:40.740Z,8.04
2019-03-01T17:04:07.864Z,8.04
2019-03-01T17:06:34.874Z,8.04
2019-03-01T17:09:04.225Z,8.01
2019-03-01T17:11:30.923Z,7.99
2019-03-01T17:13:59.583Z,8.01
2019-03-01T17:16:26.475Z,8.01
2019-03-01T17:18:52.994Z,7.97
2019-03-01T17:21:19.436Z,7.96
2019-03-01T17:23:49.362Z,7.94
2019-03-01T17:26:16.093Z,7.74
2019-03-01T17:28:42.575Z,7.66
2019-03-01T17:31:09.028Z,7.53
2019-03-01T17:33:38.794Z,7.41
2019-03-01T17:36:18.272Z,7.42
2019-03-01T17:38:45.914Z,7.37
2019-03-01T17:41:10.914Z,7.30
2019-03-01T17:43:37.549Z,7.29
2019-03-01T17:46:05.844Z,7.26
2019-03-01T17:48:32.512Z,7.21
2019-03-01T17:50:59.033Z,7.22
2019-03-01T17:53:26.650Z,7.18
2019-03-01T17:55:53.575Z,7.15
2019-03-01T17:58:20.122Z,7.13
2019-03-01T18:00:47.720Z,7.15
2019-03-01T18:03:16.404Z,7.13
2019-03-01T18:05:42.915Z,7.07
2019-03-01T18:08:09.386Z,7.01
2019-03-01T18:10:35.894Z,7.00
2019-03-01T18:13:02.737Z,6.96
2019-03-01T18:15:29.327Z,6.93
2019-03-01T18:17:56.535Z,6.92
2019-03-01T18:20:25.354Z,6.90
2019-03-01T18:22:51.839Z,6.92
2019-03-01T18:25:18.444Z,6.92
2019-03-01T18:27:45.282Z,6.99
2019-03-01T18:30:19.690Z,6.96
2019-03-01T18:32:47.442Z,6.90
2019-03-01T18:35:15.899Z,6.88
2019-03-01T18:37:46.211Z,6.84
2019-03-01T18:40:16.553Z,6.79
2019-03-01T18:42:42.683Z,6.79
2019-03-01T18:45:11.486Z,6.69
2019-03-01T18:47:38.420Z,6.65
2019-03-01T18:50:08.728Z,6.63
2019-03-01T18:52:36.362Z,6.57
2019-03-01T18:55:03.260Z,6.49
2019-03-01T18:57:29.798Z,6.42
2019-03-01T18:59:59.916Z,6.42
2019-03-01T19:02:27.641Z,6.36
2019-03-01T19:04:55.638Z,6.36
2019-03-01T19:07:24.346Z,6.36
2019-03-01T19:09:52.152Z,6.35
2019-03-01T19:12:19.531Z,6.36
2019-03-01T19:14:46.134Z,6.35
2019-03-01T19:17:13.295Z,6.36
2019-03-01T19:19:40.017Z,6.36
2019-03-01T19:22:07.521Z,6.35
2019-03-01T19:24:42.839Z,6.39
2019-03-01T19:27:03.418Z,6.41
2019-03-01T19:30:05.078Z,6.43
2019-03-01T19:32:33.147Z,6.41
2019-03-01T19:35:00.341Z,6.40
2019-03-01T19:37:26.935Z,6.42
2019-03-01T19:39:56.495Z,6.45
2019-03-01T19:42:29.625Z,6.42
2019-03-01T19:45:00.807Z,6.34
2019-03-01T19:47:28.658Z,6.30
2019-03-01T19:49:59.325Z,6.31
2019-03-01T19:52:26.467Z,6.23
2019-03-01T19:54:53.509Z,6.20
2019-03-01T19:57:20.456Z,6.14
2019-03-01T19:59:49.600Z,6.11
2019-03-01T20:02:27.798Z,6.12
2019-03-01T20:04:55.691Z,6.18
2019-03-01T20:07:22.772Z,6.17
2019-03-01T20:09:49.938Z,6.14
2019-03-01T20:12:18.463Z,6.10
2019-03-01T20:14:45.446Z,6.11
2019-03-01T20:17:12.455Z,6.09
2019-03-01T20:19:39.004Z,6.08
2019-03-01T20:22:06.887Z,6.00
2019-03-01T20:24:40.071Z,5.92
2019-03-01T20:27:05.464Z,5.82
2019-03-01T20:29:32.139Z,5.78
2019-03-01T20:31:58.669Z,5.75
2019-03-01T20:34:25.653Z,5.67
2019-03-01T20:36:54.908Z,5.65
2019-03-01T20:39:21.658Z,5.58
2019-03-01T20:41:48.494Z,5.53
2019-03-01T20:44:18.802Z,5.51
2019-03-01T20:46:55.622Z,5.46
2019-03-01T20:49:26.765Z,5.39
2019-03-01T20:51:55.094Z,5.34
2019-03-01T20:54:21.886Z,5.34
2019-03-01T20:56:51.630Z,5.24
2019-03-01T20:59:18.975Z,5.17
2019-03-01T21:01:46.904Z,5.21
2019-03-01T21:04:16.191Z,5.15
2019-03-01T21:06:43.025Z,5.12
2019-03-01T21:09:09.847Z,5.11
2019-03-01T21:11:37.038Z,5.10
2019-03-01T21:14:05.546Z,5.09
2019-03-01T21:16:32.700Z,5.02
2019-03-01T21:19:05.772Z,4.93
2019-03-01T21:21:31.297Z,4.88
2019-03-01T21:23:58.443Z,4.90
2019-03-01T21:26:25.059Z,4.89
2019-03-01T21:28:52.827Z,4.89
2019-03-01T21:31:19.579Z,4.87
2019-03-01T21:33:51.533Z,4.86
2019-03-01T21:36:18.166Z,4.82
2019-03-01T21:38:49.163Z,4.78
2019-03-01T21:41:14.088Z,4.76
2019-03-01T21:43:40.569Z,4.70
2019-03-01T21:46:08.591Z,4.71
2019-03-01T21:48:35.228Z,4.66
2019-03-01T21:51:02.020Z,4.59
2019-03-01T21:53:28.547Z,4.58
2019-03-01T21:55:55.056Z,4.52
2019-03-01T21:58:21.545Z,4.47
2019-03-01T22:00:48.497Z,4.40
2019-03-01T22:03:15.085Z,4.38
2019-03-01T22:05:41.791Z,4.32
2019-03-01T22:08:09.536Z,4.34
2019-03-01T22:10:38.939Z,4.33
2019-03-01T22:13:07.284Z,4.28
2019-03-01T22:15:39.092Z,4.19
2019-03-01T22:18:05.604Z,4.11
2019-03-01T22:20:32.369Z,4.06
2019-03-01T22:22:58.950Z,4.03
2019-03-01T22:25:25.465Z,3.97
2019-03-01T22:27:52.039Z,3.93
2019-03-01T22:30:22.989Z,3.95
2019-03-01T22:32:50.564Z,3.97
2019-03-01T22:35:17.411Z,3.88
2019-03-01T22:37:43.949Z,3.87
2019-03-01T22:40:10.678Z,3.84
2019-03-01T22:42:37.420Z,3.80
2019-03-01T22:45:04.343Z,3.74
2019-03-01T22:47:32.397Z,3.71
2019-03-01T22:49:59.264Z,3.59
2019-03-01T22:52:30.368Z,3.58
2019-03-01T22:54:57.738Z,3.50
2019-03-01T22:57:26.067Z,3.50
2019-03-01T22:59:52.623Z,3.51
2019-03-01T23:02:21.957Z,3.55
2019-03-01T23:04:48.418Z,3.45
2019-03-01T23:07:15.028Z,3.47
2019-03-01T23:09:42.594Z,3.43
2019-03-01T23:12:09.966Z,3.41
2019-03-01T23:14:36.445Z,3.42
2019-03-01T23:17:03.264Z,3.41
2019-03-01T23:19:29.739Z,3.46
2019-03-01T23:21:56.233Z,3.48
2019-03-01T23:24:22.673Z,3.53
2019-03-01T23:26:49.439Z,3.56
2019-03-01T23:29:18.784Z,3.51
2019-03-01T23:31:44.408Z,3.51
2019-03-01T23:34:10.991Z,3.49
2019-03-01T23:36:37.782Z,3.46
2019-03-01T23:39:05.488Z,3.49
2019-03-01T23:41:31.965Z,3.51
2019-03-01T23:43:58.708Z,3.51
2019-03-01T23:46:25.585Z,3.53
2019-03-01T23:48:54.745Z,3.54
2019-03-01T23:51:21.192Z,3.50
2019-03-01T23:53:47.657Z,3.50
2019-03-01T23:56:14.094Z,3.46
2019-03-01T23:58:40.858Z,3.48
